Time;durP1;ratioP1;P1;durP2;ratioP2;P2;SDS_P1;SDS_P2;PMS_P1;PMS_P2;Temp;Humidity;BMP_temperature;BMP_pressure;BME280_temperature;BME280_humidity;BME280_pressure;Samples;Min_cycle;Max_cycle;Signal;HPM_P1;HPM_P2
2022/01/13 00:02:21;;;;;;;324.50;117.95;;;5.80;99.90;;;;;;5018634;28;20488;-81
2022/01/13 00:04:48;;;;;;;231.20;116.35;;;5.80;99.90;;;;;;5035393;28;20061;-81
2022/01/13 00:07:15;;;;;;;229.35;116.53;;;5.80;99.90;;;;;;5034867;28;20054;-81
2022/01/13 00:09:44;;;;;;;240.85;116.85;;;5.80;99.90;;;;;;5034979;28;20066;-81
2022/01/13 00:12:12;;;;;;;273.90;119.47;;;5.80;99.90;;;;;;5018517;28;20054;-81
2022/01/13 00:14:53;;;;;;;245.05;119.65;;;5.80;99.90;;;;;;5018546;28;20042;-81
2022/01/13 00:17:33;;;;;;;252.35;120.00;;;5.80;99.90;;;;;;5034711;28;20065;-81
2022/01/13 00:20:30;;;;;;;247.82;118.18;;;5.80;99.90;;;;;;5018134;28;20582;-81
2022/01/13 00:25:43;;;;;;;266.77;116.85;;;5.80;99.90;;;;;;5034836;28;20046;-81
2022/01/13 00:28:16;;;;;;;234.20;116.65;;;5.80;99.90;;;;;;5018117;28;20050;-81
2022/01/13 00:30:44;;;;;;;233.07;117.03;;;5.80;99.90;;;;;;5035113;28;20132;-81
2022/01/13 00:33:13;;;;;;;250.73;118.70;;;5.80;99.90;;;;;;5034348;28;20501;-81
2022/01/13 00:35:40;;;;;;;269.63;124.82;;;5.80;99.90;;;;;;5034643;28;20046;-81
2022/01/13 00:38:07;;;;;;;208.73;113.82;;;5.80;99.90;;;;;;5034804;28;20049;-81
2022/01/13 00:40:34;;;;;;;221.90;116.13;;;5.80;99.90;;;;;;5034678;28;20178;-82
2022/01/13 00:43:02;;;;;;;206.30;114.40;;;5.80;99.90;;;;;;5018053;28;20053;-81
2022/01/13 00:45:29;;;;;;;217.68;117.28;;;5.70;99.90;;;;;;5017815;28;20042;-81
2022/01/13 00:47:56;;;;;;;230.32;119.60;;;5.70;99.90;;;;;;5017928;28;20081;-81
2022/01/13 00:50:23;;;;;;;225.68;115.22;;;5.70;99.90;;;;;;5034736;28;20152;-81
2022/01/13 00:52:50;;;;;;;230.00;118.50;;;5.70;99.90;;;;;;5034492;28;20538;-81
2022/01/13 00:55:21;;;;;;;244.57;117.18;;;5.70;99.90;;;;;;5034332;28;20513;-81
2022/01/13 00:57:48;;;;;;;227.00;115.80;;;5.70;99.90;;;;;;5033603;28;20062;-81
2022/01/13 01:00:18;;;;;;;271.15;117.88;;;5.70;99.90;;;;;;5034454;28;20054;-81
2022/01/13 01:02:45;;;;;;;203.68;117.75;;;5.70;99.90;;;;;;5034205;28;20053;-81
2022/01/13 01:05:12;;;;;;;186.82;116.45;;;5.70;99.90;;;;;;5017500;28;20531;-81
2022/01/13 01:07:39;;;;;;;196.10;114.30;;;5.60;99.90;;;;;;5033970;28;20057;-82
2022/01/13 01:10:08;;;;;;;241.75;116.32;;;5.60;99.90;;;;;;5017212;28;20054;-81
2022/01/13 01:12:37;;;;;;;225.45;118.50;;;5.60;99.90;;;;;;5033509;28;20053;-81
2022/01/13 01:15:06;;;;;;;208.38;119.05;;;5.60;99.90;;;;;;5017506;28;20042;-81
2022/01/13 01:17:42;;;;;;;268.80;118.88;;;5.70;99.90;;;;;;5034001;28;20164;-81
2022/01/13 01:20:10;;;;;;;184.55;116.05;;;5.60;99.90;;;;;;5017463;28;20061;-81
2022/01/13 01:25:34;;;;;;;175.13;115.43;;;5.60;99.90;;;;;;5033220;28;20061;-81
2022/01/13 01:28:01;;;;;;;195.85;117.82;;;5.60;99.90;;;;;;5033671;28;20112;-81
2022/01/13 01:30:34;;;;;;;218.77;119.68;;;5.60;99.90;;;;;;5034118;28;20057;-81
2022/01/13 01:33:03;;;;;;;204.32;117.50;;;5.60;99.90;;;;;;5017278;28;20077;-81
2022/01/13 01:35:30;;;;;;;255.52;124.60;;;5.70;99.90;;;;;;5016861;28;20077;-81
2022/01/13 01:37:57;;;;;;;179.05;115.93;;;5.70;99.90;;;;;;5016999;28;20128;-81
2022/01/13 01:40:24;;;;;;;177.00;118.47;;;5.70;99.90;;;;;;5034017;28;20064;-81
2022/01/13 01:42:51;;;;;;;183.13;116.65;;;5.70;99.90;;;;;;5016941;28;20049;-81
2022/01/13 01:45:19;;;;;;;181.32;114.15;;;5.80;99.90;;;;;;5033541;28;20046;-81
2022/01/13 01:47:50;;;;;;;199.30;119.03;;;5.80;99.90;;;;;;5033473;28;20061;-82
2022/01/13 01:50:23;;;;;;;184.52;117.45;;;5.70;99.90;;;;;;5035880;28;20046;-83
2022/01/13 01:52:53;;;;;;;190.93;117.68;;;5.70;99.90;;;;;;5016286;28;20049;-81
2022/01/13 01:55:21;;;;;;;175.23;116.95;;;5.80;99.90;;;;;;5032797;28;20108;-81
2022/01/13 01:57:52;;;;;;;190.35;119.18;;;5.70;99.90;;;;;;5015545;28;20089;-81
2022/01/13 02:00:20;;;;;;;;;;;5.70;99.90;;;;;;5032774;28;20057;-82
2022/01/13 02:02:47;;;;;;;176.07;114.78;;;5.80;99.90;;;;;;5032748;28;20445;-81
2022/01/13 02:05:14;;;;;;;174.65;113.45;;;5.80;99.90;;;;;;5015979;28;20050;-82
2022/01/13 02:07:42;;;;;;;190.25;118.80;;;5.80;99.90;;;;;;5032200;28;20101;-82
2022/01/13 02:10:10;;;;;;;177.88;115.78;;;5.80;99.90;;;;;;5032275;28;20045;-82
2022/01/13 02:12:42;;;;;;;179.73;115.03;;;5.70;99.90;;;;;;5033233;28;20061;-82
2022/01/13 02:17:55;;;;;;;199.73;113.88;;;5.70;99.90;;;;;;5016419;28;20440;-81
2022/01/13 02:20:24;;;;;;;166.43;114.05;;;5.70;99.90;;;;;;5033002;28;20061;-81
2022/01/13 02:22:51;;;;;;;169.20;114.95;;;5.70;99.90;;;;;;5016674;28;20132;-82
2022/01/13 02:25:18;;;;;;;198.80;115.68;;;5.70;99.90;;;;;;5031786;28;20080;-81
2022/01/13 02:27:46;;;;;;;182.23;116.18;;;5.70;99.90;;;;;;5032474;28;20053;-81
2022/01/13 02:30:13;;;;;;;182.30;114.80;;;5.70;99.90;;;;;;5016149;28;20100;-82
2022/01/13 02:32:40;;;;;;;149.95;112.80;;;5.70;99.90;;;;;;5016298;28;20492;-81
2022/01/13 02:35:08;;;;;;;160.00;112.13;;;5.80;99.90;;;;;;5015574;28;20056;-81
2022/01/13 02:37:37;;;;;;;161.00;115.18;;;5.80;99.90;;;;;;5032432;28;20138;-82
2022/01/13 02:40:05;;;;;;;142.50;111.88;;;5.80;99.90;;;;;;5016253;28;20045;-81
2022/01/13 02:42:33;;;;;;;155.75;113.03;;;5.70;99.90;;;;;;5021865;28;20180;-81
2022/01/13 02:45:05;;;;;;;150.10;113.05;;;5.70;99.90;;;;;;5036307;28;20427;-81
2022/01/13 02:47:59;;;;;;;139.57;110.80;;;5.70;99.90;;;;;;5051353;28;20064;-81
2022/01/13 02:50:25;;;;;;;164.05;113.00;;;5.70;99.90;;;;;;5052366;28;20103;-81
2022/01/13 02:52:54;;;;;;;190.77;113.72;;;5.70;99.90;;;;;;5052516;28;20610;-81
2022/01/13 02:55:23;;;;;;;155.13;111.75;;;5.60;99.90;;;;;;5052461;28;20053;-81
2022/01/13 02:57:50;;;;;;;150.65;111.13;;;5.60;99.90;;;;;;5052010;28;20141;-81
2022/01/13 03:00:18;;;;;;;161.32;110.55;;;5.60;99.90;;;;;;5035878;28;20081;-81
2022/01/13 03:02:47;;;;;;;193.05;113.00;;;5.60;99.90;;;;;;5052506;28;20088;-81
2022/01/13 03:05:15;;;;;;;147.80;110.00;;;5.60;99.90;;;;;;5052288;28;20541;-81
2022/01/13 03:07:42;;;;;;;175.85;111.18;;;5.60;99.90;;;;;;5035724;28;20050;-81
2022/01/13 03:10:12;;;;;;;162.00;110.97;;;5.60;99.90;;;;;;5052310;28;20060;-81
2022/01/13 03:12:43;;;;;;;182.25;110.55;;;5.60;99.90;;;;;;5051941;28;20140;-81
2022/01/13 03:15:10;;;;;;;192.13;112.95;;;5.60;99.90;;;;;;5035656;28;20045;-81
2022/01/13 03:17:37;;;;;;;;;;;5.60;99.90;;;;;;5052517;28;20161;-81
2022/01/13 03:20:05;;;;;;;157.77;113.65;;;5.60;99.90;;;;;;5035925;28;19925;-81
2022/01/13 03:22:32;;;;;;;198.88;116.10;;;5.60;99.90;;;;;;5035573;28;20076;-81
2022/01/13 03:24:59;;;;;;;196.00;114.45;;;5.60;99.90;;;;;;5035247;28;20050;-81
2022/01/13 03:27:34;;;;;;;197.55;117.93;;;5.60;99.90;;;;;;5051913;28;20140;-81
2022/01/13 03:30:04;;;;;;;177.43;113.03;;;5.60;99.90;;;;;;5051911;28;20100;-82
2022/01/13 03:32:32;;;;;;;159.57;114.60;;;5.60;99.90;;;;;;5035417;28;20054;-81
2022/01/13 03:34:59;;;;;;;171.90;112.80;;;5.60;99.90;;;;;;5052088;28;20042;-81
2022/01/13 03:37:26;;;;;;;184.80;111.80;;;5.60;99.90;;;;;;5055047;28;20045;-81
2022/01/13 03:39:53;;;;;;;197.02;116.05;;;5.60;99.90;;;;;;5055782;28;20921;-81
2022/01/13 03:42:20;;;;;;;159.15;110.00;;;5.70;99.90;;;;;;5055491;28;20500;-81
2022/01/13 03:44:49;;;;;;;172.73;111.55;;;5.60;99.90;;;;;;5055377;28;20200;-81
2022/01/13 03:47:16;;;;;;;172.20;112.38;;;5.60;99.90;;;;;;5055138;28;20143;-82
2022/01/13 03:49:43;;;;;;;;;;;5.70;99.90;;;;;;5055330;28;20096;-81
2022/01/13 03:52:43;;;;;;;185.10;113.53;;;5.70;99.90;;;;;;5055766;28;20378;-81
2022/01/13 03:55:51;;;;;;;188.90;111.72;;;5.70;99.90;;;;;;5038878;28;20072;-81
2022/01/13 03:59:03;;;;;;;194.32;112.05;;;5.70;99.90;;;;;;5037659;28;20148;-81
2022/01/13 04:01:53;;;;;;;196.48;111.30;;;5.70;99.90;;;;;;5032148;28;20053;-81
2022/01/13 04:04:20;;;;;;;182.65;116.65;;;5.60;99.90;;;;;;5018671;28;20141;-82
2022/01/13 04:06:47;;;;;;;188.85;113.95;;;5.60;99.90;;;;;;5035097;28;20077;-82
2022/01/13 04:09:51;;;;;;;201.00;111.60;;;5.60;99.90;;;;;;5018412;28;20208;-82
2022/01/13 04:12:21;;;;;;;217.82;117.82;;;5.60;99.90;;;;;;5035121;28;20060;-81
2022/01/13 04:14:54;;;;;;;168.63;111.18;;;5.60;99.90;;;;;;5034722;28;20053;-81
2022/01/13 04:17:24;;;;;;;237.88;115.78;;;5.70;99.90;;;;;;5030370;28;20121;-81
2022/01/13 04:19:51;;;;;;;188.95;112.95;;;5.60;99.90;;;;;;5041408;28;20050;-81
2022/01/13 04:22:19;;;;;;;182.68;112.78;;;5.60;99.90;;;;;;5037940;28;20054;-81
2022/01/13 04:24:49;;;;;;;189.43;113.38;;;5.60;99.90;;;;;;5034615;28;20105;-81
2022/01/13 04:27:22;;;;;;;182.52;112.43;;;5.70;99.90;;;;;;5025543;28;20539;-82
2022/01/13 04:30:00;;;;;;;250.65;119.43;;;5.60;99.90;;;;;;5046796;28;20050;-82
2022/01/13 04:32:29;;;;;;;213.80;115.68;;;5.60;99.90;;;;;;5042729;28;20080;-81
2022/01/13 04:34:56;;;;;;;200.60;114.20;;;5.70;99.90;;;;;;5034689;28;20492;-81
2022/01/13 04:37:22;;;;;;;201.65;115.13;;;5.60;99.90;;;;;;5043291;28;20148;-81
2022/01/13 04:39:50;;;;;;;188.25;112.85;;;5.60;99.90;;;;;;5045820;28;20088;-82
2022/01/13 04:42:16;;;;;;;;;;;5.60;99.90;;;;;;5053042;28;20499;-82
2022/01/13 04:44:43;;;;;;;185.00;114.32;;;5.60;99.90;;;;;;5060254;28;19956;-81
2022/01/13 04:47:10;;;;;;;186.30;116.93;;;5.60;99.90;;;;;;5046741;28;20057;-81
2022/01/13 04:49:38;;;;;;;184.02;116.63;;;5.60;99.90;;;;;;5033383;28;20133;-81
2022/01/13 04:52:06;;;;;;;166.88;118.57;;;5.60;99.90;;;;;;5034323;28;20412;-81
2022/01/13 04:54:32;;;;;;;173.50;113.95;;;5.60;99.90;;;;;;5043613;28;20080;-81
2022/01/13 04:57:14;;;;;;;228.82;121.68;;;5.50;99.90;;;;;;5048580;28;20050;-81
2022/01/13 04:59:41;;;;;;;231.25;120.93;;;5.50;99.90;;;;;;5036467;28;20050;-82
2022/01/13 05:02:08;;;;;;;204.27;117.47;;;5.50;99.90;;;;;;5040991;28;20054;-83
2022/01/13 05:04:35;;;;;;;194.38;115.25;;;5.60;99.90;;;;;;5040532;28;20056;-81
2022/01/13 05:07:03;;;;;;;155.82;116.05;;;5.60;99.90;;;;;;5029777;28;20485;-81
2022/01/13 05:09:30;;;;;;;218.95;123.43;;;5.50;99.90;;;;;;5041698;28;20049;-81
2022/01/13 05:11:58;;;;;;;203.45;120.07;;;5.50;99.90;;;;;;5035767;28;20053;-81
2022/01/13 05:14:26;;;;;;;182.82;115.88;;;5.60;99.90;;;;;;5036395;28;20093;-81
2022/01/13 05:16:58;;;;;;;;;;;5.50;99.90;;;;;;5050511;28;20462;-82
2022/01/13 05:19:31;;;;;;;191.73;114.45;;;5.60;99.90;;;;;;5031200;28;19932;-82
2022/01/13 05:22:15;;;;;;;162.63;115.40;;;5.60;99.90;;;;;;5045926;28;20092;-82
2022/01/13 05:24:46;;;;;;;222.10;120.38;;;5.60;99.90;;;;;;5048425;28;20049;-82
2022/01/13 05:27:13;;;;;;;202.23;120.15;;;5.50;99.90;;;;;;5049773;28;20052;-82
2022/01/13 05:29:40;;;;;;;;;;;5.50;99.90;;;;;;5039579;28;20152;-82
2022/01/13 05:32:07;;;;;;;224.00;120.45;;;5.50;99.90;;;;;;5036675;28;19931;-81
2022/01/13 05:34:34;;;;;;;205.43;118.65;;;5.50;99.90;;;;;;5044150;28;20119;-82
2022/01/13 05:37:01;;;;;;;175.10;117.32;;;5.60;99.90;;;;;;5051773;28;20049;-82
2022/01/13 05:39:28;;;;;;;184.18;116.72;;;5.60;99.90;;;;;;5035726;28;20054;-81
2022/01/13 05:41:56;;;;;;;193.43;121.80;;;5.50;99.90;;;;;;5034015;28;20049;-81
2022/01/13 05:44:23;;;;;;;170.07;116.78;;;5.60;99.90;;;;;;5017128;28;20514;-82
2022/01/13 05:46:50;;;;;;;204.77;119.32;;;5.50;99.90;;;;;;5036312;28;20049;-81
2022/01/13 05:49:17;;;;;;;201.30;112.78;;;5.50;99.90;;;;;;5036353;28;20052;-81
2022/01/13 05:51:44;;;;;;;186.95;115.85;;;5.50;99.90;;;;;;5033582;28;20055;-81
2022/01/13 05:54:10;;;;;;;224.02;119.75;;;5.50;99.90;;;;;;5031623;28;20057;-82
2022/01/13 05:56:37;;;;;;;160.57;113.82;;;5.50;99.90;;;;;;5024333;28;20049;-81
2022/01/13 05:59:06;;;;;;;177.35;115.38;;;5.40;99.90;;;;;;5032091;28;20135;-82
2022/01/13 06:01:32;;;;;;;164.95;116.70;;;5.40;99.90;;;;;;5045318;28;20054;-82
2022/01/13 06:03:59;;;;;;;193.55;116.57;;;5.40;99.90;;;;;;5050614;28;20053;-81
2022/01/13 06:06:26;;;;;;;196.93;115.05;;;5.40;99.90;;;;;;5053087;28;20140;-81
2022/01/13 06:08:53;;;;;;;191.05;115.18;;;5.40;99.90;;;;;;5043527;28;20139;-82
2022/01/13 06:11:22;;;;;;;194.25;115.88;;;5.40;99.90;;;;;;5036081;28;20712;-81
2022/01/13 06:13:50;;;;;;;177.45;115.88;;;5.40;99.90;;;;;;5032350;28;20082;-82
2022/01/13 06:16:18;;;;;;;;;;;5.40;99.90;;;;;;5016603;28;20041;-81
2022/01/13 06:18:45;;;;;;;173.02;113.40;;;5.40;99.90;;;;;;5041978;28;19947;-81
2022/01/13 06:21:12;;;;;;;192.75;115.88;;;5.40;99.90;;;;;;5045103;28;20054;-82
2022/01/13 06:23:39;;;;;;;168.15;113.28;;;5.40;99.90;;;;;;5041735;28;20050;-81
2022/01/13 06:26:06;;;;;;;177.30;114.93;;;5.50;99.90;;;;;;5043062;28;20049;-82
2022/01/13 06:28:33;;;;;;;177.60;114.60;;;5.50;99.90;;;;;;5052144;28;20091;-82
2022/01/13 06:31:00;;;;;;;174.18;112.90;;;5.50;99.90;;;;;;5034638;28;20627;-82
2022/01/13 06:33:29;;;;;;;164.35;111.85;;;5.50;99.90;;;;;;5051747;28;20111;-82
2022/01/13 06:35:56;;;;;;;172.88;114.15;;;5.40;99.90;;;;;;5049172;28;20056;-82
2022/01/13 06:38:24;;;;;;;193.52;114.63;;;5.50;99.90;;;;;;5032936;28;20141;-81
2022/01/13 06:40:50;;;;;;;;;;;5.50;99.90;;;;;;5033429;28;20101;-82
2022/01/13 06:43:18;;;;;;;180.35;116.20;;;5.50;99.90;;;;;;5033522;28;19976;-82
2022/01/13 06:45:45;;;;;;;;;;;5.50;99.90;;;;;;5018648;28;20050;-82
2022/01/13 06:48:12;;;;;;;181.50;115.88;;;5.50;99.90;;;;;;5033222;28;19980;-82
2022/01/13 06:50:40;;;;;;;166.63;113.95;;;5.50;99.90;;;;;;5026628;28;20046;-81
2022/01/13 06:53:08;;;;;;;183.48;117.53;;;5.50;99.90;;;;;;5038502;28;20060;-82
2022/01/13 06:55:34;;;;;;;;;;;5.40;99.90;;;;;;5037166;28;20538;-81
2022/01/13 06:58:07;;;;;;;172.40;116.25;;;5.50;99.90;;;;;;5043388;28;19925;-82
2022/01/13 07:00:33;;;;;;;177.07;115.55;;;5.50;99.90;;;;;;5050462;28;20056;-82
2022/01/13 07:03:03;;;;;;;171.85;117.60;;;5.50;99.90;;;;;;5019394;28;20053;-81
2022/01/13 07:05:30;;;;;;;181.60;116.20;;;5.50;99.90;;;;;;5035685;28;20038;-82
2022/01/13 07:07:58;;;;;;;170.77;116.50;;;5.50;99.90;;;;;;5032083;28;20054;-82
2022/01/13 07:10:25;;;;;;;187.18;117.10;;;5.50;99.90;;;;;;5050306;28;20053;-82
2022/01/13 07:12:52;;;;;;;181.82;116.82;;;5.50;99.90;;;;;;5046303;28;20121;-82
2022/01/13 07:15:19;;;;;;;230.43;121.68;;;5.50;99.90;;;;;;5035595;28;20507;-82
2022/01/13 07:17:47;;;;;;;163.43;115.28;;;5.50;99.90;;;;;;5047380;28;20057;-82
2022/01/13 07:20:14;;;;;;;191.50;116.68;;;5.50;99.90;;;;;;5034697;28;20596;-81
2022/01/13 07:22:41;;;;;;;183.40;113.75;;;5.50;99.90;;;;;;5036191;28;20057;-82
2022/01/13 07:25:11;;;;;;;180.23;117.40;;;5.50;99.90;;;;;;5041192;28;20052;-82
2022/01/13 07:27:38;;;;;;;176.55;120.55;;;5.50;99.90;;;;;;5051995;28;21396;-82
2022/01/13 07:30:06;;;;;;;185.15;117.07;;;5.50;99.90;;;;;;5055148;28;20053;-82
2022/01/13 07:32:33;;;;;;;165.35;117.47;;;5.50;99.90;;;;;;5038183;28;20080;-82
2022/01/13 07:35:01;;;;;;;197.25;118.40;;;5.50;99.90;;;;;;5055048;28;20049;-82
2022/01/13 07:37:28;;;;;;;;;;;5.50;99.90;;;;;;5055448;28;20057;-82
2022/01/13 07:39:55;;;;;;;203.05;116.57;;;5.50;99.90;;;;;;5038371;28;20051;-82
2022/01/13 07:42:26;;;;;;;184.52;120.53;;;5.50;99.90;;;;;;5055054;28;20053;-82
2022/01/13 07:44:55;;;;;;;176.90;116.05;;;5.50;99.90;;;;;;5038291;28;20116;-82
2022/01/13 07:47:22;;;;;;;;;;;5.50;99.90;;;;;;5052549;28;20063;-83
2022/01/13 07:49:49;;;;;;;204.73;119.80;;;5.50;99.90;;;;;;5035327;28;19925;-82
2022/01/13 07:52:16;;;;;;;170.60;115.22;;;5.50;99.90;;;;;;5018729;28;20082;-82
2022/01/13 07:54:43;;;;;;;201.85;120.43;;;5.50;99.90;;;;;;5034822;28;20494;-82
2022/01/13 07:57:09;;;;;;;208.27;118.75;;;5.50;99.90;;;;;;5036584;28;20573;-82
2022/01/13 07:59:38;;;;;;;175.55;117.38;;;5.50;99.90;;;;;;5036119;28;20526;-81
2022/01/13 08:02:05;;;;;;;194.60;120.53;;;5.50;99.90;;;;;;5052687;28;20570;-83
2022/01/13 08:04:36;;;;;;;183.25;119.18;;;5.60;99.90;;;;;;5052005;28;20050;-82
2022/01/13 08:07:03;;;;;;;179.70;121.22;;;5.60;99.90;;;;;;5036976;28;20131;-82
2022/01/13 08:09:30;;;;;;;179.10;118.00;;;5.50;99.90;;;;;;5052409;28;20517;-84
2022/01/13 08:11:57;;;;;;;167.13;115.47;;;5.50;99.90;;;;;;5036636;28;20053;-82
2022/01/13 08:14:25;;;;;;;184.85;117.38;;;5.50;99.90;;;;;;5053063;28;20041;-84
2022/01/13 08:16:58;;;;;;;160.82;115.60;;;5.50;99.90;;;;;;5016912;28;20060;-83
2022/01/13 08:22:10;;;;;;;183.75;118.43;;;5.50;99.90;;;;;;5033058;28;20050;-82
2022/01/13 08:24:37;;;;;;;173.52;117.07;;;5.50;99.90;;;;;;5047064;28;20045;-82
2022/01/13 08:27:04;;;;;;;183.30;118.85;;;5.50;99.90;;;;;;5029699;28;20088;-82
2022/01/13 08:29:31;;;;;;;;;;;5.50;99.90;;;;;;5052921;28;20053;-80
2022/01/13 08:31:59;;;;;;;185.32;117.88;;;5.60;99.90;;;;;;5050149;28;19925;-80
2022/01/13 08:34:26;;;;;;;184.77;119.75;;;5.50;99.90;;;;;;5019121;28;20140;-81
2022/01/13 08:36:54;;;;;;;179.60;117.25;;;5.60;99.90;;;;;;5033006;28;20077;-82
2022/01/13 08:39:21;;;;;;;166.43;117.05;;;5.60;99.90;;;;;;5030169;28;20089;-83
2022/01/13 08:41:48;;;;;;;;;;;5.60;99.90;;;;;;5033052;28;20148;-82
2022/01/13 08:44:15;;;;;;;173.25;117.05;;;5.60;99.90;;;;;;5033806;28;20020;-84
2022/01/13 08:46:42;;;;;;;163.32;115.38;;;5.50;99.90;;;;;;5032576;28;20102;-84
2022/01/13 08:49:10;;;;;;;182.77;118.05;;;5.60;99.90;;;;;;5032545;28;20464;-82
2022/01/13 08:51:38;;;;;;;191.82;118.78;;;5.60;99.90;;;;;;5016033;28;20057;-85
2022/01/13 08:54:05;;;;;;;189.32;122.60;;;5.60;99.90;;;;;;5033535;28;20052;-82
2022/01/13 08:56:32;;;;;;;193.02;120.97;;;5.70;99.90;;;;;;5035314;28;20063;-80
2022/01/13 08:58:59;;;;;;;169.18;117.18;;;5.70;99.90;;;;;;5035871;28;20504;-84
2022/01/13 09:01:26;;;;;;;179.38;118.50;;;5.60;99.90;;;;;;5036412;28;20080;-81
2022/01/13 09:03:52;;;;;;;183.00;123.97;;;5.60;99.90;;;;;;5053444;28;20103;-81
2022/01/13 09:06:21;;;;;;;174.20;117.15;;;5.60;99.90;;;;;;5035305;28;20061;-81
2022/01/13 09:08:49;;;;;;;168.35;116.22;;;5.70;99.90;;;;;;5053202;28;20945;-79
2022/01/13 09:11:16;;;;;;;191.90;119.90;;;5.60;99.90;;;;;;5053858;28;20060;-81
2022/01/13 09:13:43;;;;;;;198.07;122.15;;;5.70;99.90;;;;;;5050425;28;20100;-82
2022/01/13 09:16:16;;;;;;;184.82;121.80;;;5.70;99.90;;;;;;5034179;28;20068;-81
2022/01/13 09:18:59;;;;;;;171.77;117.88;;;5.70;99.90;;;;;;5036019;28;20050;-81
2022/01/13 09:21:34;;;;;;;164.20;115.82;;;5.70;99.90;;;;;;5033752;28;20124;-84
2022/01/13 09:24:01;;;;;;;183.73;120.25;;;5.70;99.90;;;;;;5022275;28;20064;-85
2022/01/13 09:26:28;;;;;;;176.50;117.22;;;5.70;99.90;;;;;;5028524;28;20533;-87
2022/01/13 09:28:55;;;;;;;177.25;116.07;;;5.80;99.90;;;;;;5039390;28;20057;-85
2022/01/13 09:31:22;;;;;;;188.20;119.00;;;5.80;99.90;;;;;;5034192;28;20042;-82
2022/01/13 09:33:50;;;;;;;180.93;117.50;;;5.80;99.90;;;;;;5030063;28;20077;-88
2022/01/13 09:36:17;;;;;;;;;;;5.80;99.90;;;;;;5053978;28;20500;-87
2022/01/13 09:38:45;;;;;;;;;;;5.80;99.90;;;;;;5019508;28;19972;-81
2022/01/13 09:41:13;;;;;;;203.98;122.18;;;5.80;99.90;;;;;;5071170;28;19925;-87
2022/01/13 09:43:44;;;;;;;197.73;118.85;;;5.80;99.90;;;;;;5038085;28;20069;-84
2022/01/13 09:46:12;;;;;;;199.93;121.78;;;5.90;99.90;;;;;;5028556;28;20108;-83
2022/01/13 09:48:39;;;;;;;180.65;116.47;;;5.80;99.90;;;;;;5018800;28;20064;-85
2022/01/13 09:51:07;;;;;;;172.32;118.63;;;5.90;99.90;;;;;;5017956;28;20081;-85
2022/01/13 09:53:35;;;;;;;179.68;116.88;;;5.90;99.90;;;;;;5033418;28;20130;-84
2022/01/13 09:56:04;;;;;;;183.63;116.25;;;5.90;99.90;;;;;;5016597;28;20080;-86
2022/01/13 09:58:31;;;;;;;170.55;116.18;;;5.90;99.90;;;;;;5016111;28;20085;-83
2022/01/13 10:00:59;;;;;;;205.15;120.88;;;5.90;99.90;;;;;;5025317;28;20053;-85
2022/01/13 10:03:27;;;;;;;204.80;122.72;;;5.90;99.90;;;;;;5021829;28;20078;-85
2022/01/13 10:05:56;;;;;;;191.13;118.05;;;6.00;99.90;;;;;;5048748;28;20053;-86
2022/01/13 10:08:39;;;;;;;178.38;117.15;;;6.00;99.90;;;;;;5033201;28;20391;-88
2022/01/13 10:11:29;;;;;;;220.15;119.43;;;6.00;99.90;;;;;;5034142;28;20052;-90
2022/01/13 10:14:05;;;;;;;179.88;115.20;;;6.00;99.90;;;;;;5016319;28;20112;-85
2022/01/13 10:16:31;;;;;;;186.52;118.07;;;6.00;99.90;;;;;;5038020;28;20057;-84
2022/01/13 10:18:58;;;;;;;205.15;120.32;;;6.10;99.90;;;;;;5041698;28;20054;-82
2022/01/13 10:21:27;;;;;;;201.20;118.63;;;6.10;99.90;;;;;;5031383;28;20054;-81
2022/01/13 10:24:02;;;;;;;196.30;120.63;;;6.10;99.90;;;;;;5032377;28;20107;-82
2022/01/13 10:26:31;;;;;;;203.45;123.70;;;6.10;99.90;;;;;;5019191;28;20124;-81
2022/01/13 10:28:58;;;;;;;203.82;124.10;;;6.10;99.90;;;;;;5032058;28;20049;-82
2022/01/13 10:31:44;;;;;;;207.43;125.22;;;6.20;99.90;;;;;;5050910;28;20049;-82
2022/01/13 10:34:23;;;;;;;198.35;122.88;;;6.20;99.90;;;;;;5047942;28;20180;-81
2022/01/13 10:37:10;;;;;;;227.38;126.85;;;6.20;99.90;;;;;;5014508;28;20058;-82
2022/01/13 10:39:49;;;;;;;220.10;128.55;;;6.20;99.90;;;;;;5044636;28;20055;-82
2022/01/13 10:43:06;;;;;;;197.98;121.93;;;6.20;99.90;;;;;;5050237;28;20085;-80
2022/01/13 10:45:25;;;;;;;192.55;121.82;;;6.30;99.90;;;;;;5029361;28;20050;-83
2022/01/13 10:47:54;;;;;;;195.48;123.25;;;6.30;99.90;;;;;;5030679;28;20049;-82
2022/01/13 10:50:23;;;;;;;182.45;121.20;;;6.30;99.90;;;;;;5031955;28;20272;-81
2022/01/13 10:52:50;;;;;;;208.70;125.13;;;6.30;99.90;;;;;;4996629;28;20809;-82
2022/01/13 10:55:19;;;;;;;187.80;116.80;;;6.30;99.90;;;;;;5049409;28;20053;-82
2022/01/13 10:57:49;;;;;;;174.98;117.93;;;6.40;99.90;;;;;;5016512;28;20050;-81
2022/01/13 11:00:21;;;;;;;167.90;118.00;;;6.40;99.90;;;;;;5050854;28;20057;-85
2022/01/13 11:02:59;;;;;;;192.13;124.13;;;6.40;99.90;;;;;;5050592;28;20091;-82
2022/01/13 11:05:26;;;;;;;168.38;119.72;;;6.40;99.90;;;;;;5033727;28;20096;-81
2022/01/13 11:07:53;;;;;;;167.30;116.70;;;6.40;99.90;;;;;;5051770;28;20499;-82
2022/01/13 11:10:22;;;;;;;180.43;120.03;;;6.50;99.90;;;;;;5033457;28;20064;-83
2022/01/13 11:12:56;;;;;;;164.57;116.10;;;6.50;99.90;;;;;;5050878;28;20053;-81
2022/01/13 11:15:24;;;;;;;170.32;117.88;;;6.50;99.90;;;;;;5012108;28;20093;-80
2022/01/13 11:17:54;;;;;;;173.90;122.70;;;6.50;99.90;;;;;;5024562;28;20578;-80
2022/01/13 11:20:22;;;;;;;158.98;117.13;;;6.50;99.90;;;;;;5032851;28;20519;-81
2022/01/13 11:22:51;;;;;;;167.68;116.53;;;6.50;99.90;;;;;;5028843;28;20149;-80
2022/01/13 11:25:21;;;;;;;157.15;117.60;;;6.50;99.90;;;;;;5021365;28;20049;-77
2022/01/13 11:27:51;;;;;;;171.30;120.05;;;6.50;99.90;;;;;;5017776;28;20112;-82
2022/01/13 11:30:20;;;;;;;158.10;121.22;;;6.60;99.90;;;;;;5021735;28;20116;-82
2022/01/13 11:32:48;;;;;;;167.90;121.22;;;6.50;99.90;;;;;;5022069;28;20446;-82
2022/01/13 11:35:20;;;;;;;166.05;116.07;;;6.50;99.90;;;;;;5045491;28;20049;-83
2022/01/13 11:37:47;;;;;;;177.90;119.47;;;6.60;99.90;;;;;;5030478;28;20141;-83
2022/01/13 11:40:29;;;;;;;;;;;6.60;99.90;;;;;;5014903;28;20049;-84
2022/01/13 11:42:59;;;;;;;169.65;119.53;;;6.50;99.90;;;;;;5031166;28;20457;-85
2022/01/13 11:45:28;;;;;;;184.93;123.20;;;6.50;99.90;;;;;;5043013;28;20042;-85
2022/01/13 11:48:16;;;;;;;189.57;121.93;;;6.50;99.90;;;;;;5023647;28;20578;-86
2022/01/13 11:50:47;;;;;;;187.57;125.07;;;6.50;99.90;;;;;;5029651;28;20494;-86
2022/01/13 11:53:27;;;;;;;173.20;120.88;;;6.50;99.90;;;;;;5038104;28;20136;-83
2022/01/13 11:55:58;;;;;;;188.90;123.15;;;6.50;99.90;;;;;;5045376;28;20056;-83
2022/01/13 11:58:31;;;;;;;175.25;120.53;;;6.50;99.90;;;;;;5050821;28;20052;-83
2022/01/13 12:01:18;;;;;;;171.73;120.55;;;6.50;99.90;;;;;;5053607;28;20060;-83
2022/01/13 12:03:49;;;;;;;185.35;119.47;;;6.50;99.90;;;;;;5053529;28;20049;-83
2022/01/13 12:06:36;;;;;;;177.85;120.15;;;6.50;99.90;;;;;;5023131;28;20477;-90
2022/01/13 12:09:03;;;;;;;;;;;6.50;99.90;;;;;;5014169;28;20081;-80
2022/01/13 12:11:55;;;;;;;180.48;120.13;;;6.50;99.90;;;;;;5038050;28;19925;-85
2022/01/13 12:14:41;;;;;;;180.85;121.20;;;6.60;99.90;;;;;;5033223;28;20062;-85
2022/01/13 12:17:13;;;;;;;177.10;119.35;;;6.50;99.90;;;;;;5032199;28;20049;-82
2022/01/13 12:19:44;;;;;;;187.98;124.57;;;6.50;99.90;;;;;;5036702;28;20061;-85
2022/01/13 12:22:20;;;;;;;185.05;120.97;;;6.50;99.90;;;;;;5052237;28;20112;-84
2022/01/13 12:24:50;;;;;;;182.70;122.32;;;6.50;99.90;;;;;;5024611;28;20108;-87
2022/01/13 12:27:19;;;;;;;192.20;124.05;;;6.50;99.90;;;;;;5033308;28;20049;-87
2022/01/13 12:29:50;;;;;;;187.93;121.97;;;6.60;99.90;;;;;;5054114;28;20133;-84
2022/01/13 12:32:34;;;;;;;191.23;124.18;;;6.60;99.90;;;;;;5046317;28;20128;-84
2022/01/13 12:35:06;;;;;;;185.23;123.43;;;6.60;99.90;;;;;;5055069;28;20057;-86
2022/01/13 12:37:37;;;;;;;195.80;123.07;;;6.60;99.90;;;;;;5036959;28;20046;-84
2022/01/13 12:40:17;;;;;;;194.68;126.90;;;6.60;99.90;;;;;;5033450;28;20049;-87
2022/01/13 12:42:52;;;;;;;191.50;125.82;;;6.60;99.90;;;;;;5027078;28;20061;-82
2022/01/13 12:45:32;;;;;;;188.18;126.40;;;6.60;99.90;;;;;;5038934;28;20505;-82
2022/01/13 12:48:05;;;;;;;191.98;126.07;;;6.60;99.90;;;;;;5021082;28;20052;-85
2022/01/13 12:50:36;;;;;;;195.38;125.90;;;6.60;99.90;;;;;;5052290;28;20503;-85